Time;durP1;ratioP1;P1;durP2;ratioP2;P2;SDS_P1;SDS_P2;PMS_P1;PMS_P2;Temp;Humidity;BMP_temperature;BMP_pressure;BME280_temperature;BME280_humidity;BME280_pressure;Samples;Min_cycle;Max_cycle;Signal;HPM_P1;HPM_P2
2021/01/24 00:01:08;;;;;;;13.32;9.63;;;2.90;99.90;;;;;;5121743;28;20206;-87
2021/01/24 00:04:02;;;;;;;19.92;10.80;;;2.90;99.90;;;;;;5101175;28;20169;-88
2021/01/24 00:06:41;;;;;;;21.05;12.45;;;2.90;99.90;;;;;;5127106;27;20180;-87
2021/01/24 00:09:33;;;;;;;27.08;13.88;;;2.90;99.90;;;;;;4821711;27;20452;-87
2021/01/24 00:12:12;;;;;;;23.62;13.35;;;2.90;99.90;;;;;;5062365;28;20114;-88
2021/01/24 00:15:09;;;;;;;15.00;8.75;;;2.90;99.90;;;;;;5089768;28;20140;-88
2021/01/24 00:17:48;;;;;;;12.15;7.40;;;2.90;99.90;;;;;;5085607;28;20105;-85
2021/01/24 00:20:40;;;;;;;14.68;9.05;;;2.90;99.90;;;;;;5128014;28;20110;-85
2021/01/24 00:23:19;;;;;;;19.37;10.32;;;2.90;99.90;;;;;;5128483;28;20179;-85
2021/01/24 00:26:11;;;;;;;17.05;8.93;;;2.80;99.90;;;;;;5084732;28;20124;-86
2021/01/24 00:28:50;;;;;;;15.98;10.20;;;2.80;99.90;;;;;;5121156;28;20091;-86
2021/01/24 00:31:47;;;;;;;15.00;9.50;;;2.80;99.90;;;;;;5054555;28;20111;-87
2021/01/24 00:34:26;;;;;;;17.50;9.80;;;2.80;99.90;;;;;;5078418;28;20131;-87
2021/01/24 00:37:18;;;;;;;14.23;8.23;;;2.80;99.90;;;;;;5046808;28;20198;-86
2021/01/24 00:39:57;;;;;;;19.77;11.48;;;2.80;99.90;;;;;;5142722;27;20443;-87
2021/01/24 00:42:49;;;;;;;16.90;10.32;;;2.80;99.90;;;;;;5142878;27;20094;-87
2021/01/24 00:45:28;;;;;;;16.50;10.13;;;2.80;99.90;;;;;;5107719;28;20087;-88
2021/01/24 00:48:31;;;;;;;16.20;10.55;;;2.80;99.90;;;;;;5047310;28;20092;-87
2021/01/24 00:51:25;;;;;;;13.85;8.55;;;2.80;99.90;;;;;;5071145;28;20453;-86
2021/01/24 00:54:21;;;;;;;12.73;7.12;;;2.80;99.90;;;;;;5067381;28;20170;-87
2021/01/24 00:57:14;;;;;;;10.35;6.70;;;2.80;99.90;;;;;;5107033;28;20168;-86
2021/01/24 01:00:09;;;;;;;9.90;6.50;;;2.90;99.90;;;;;;5100561;28;20088;-86
2021/01/24 01:02:47;;;;;;;9.10;6.35;;;2.80;99.90;;;;;;5096546;28;20084;-86
2021/01/24 01:05:39;;;;;;;7.82;5.82;;;2.80;99.90;;;;;;5113639;28;20100;-87
2021/01/24 01:08:21;;;;;;;10.32;7.00;;;2.80;99.90;;;;;;5152353;28;20102;-84
2021/01/24 01:11:14;;;;;;;17.62;9.60;;;2.80;99.90;;;;;;5086303;28;20101;-85
2021/01/24 01:13:53;;;;;;;12.07;7.28;;;2.80;99.90;;;;;;5129793;27;20507;-88
2021/01/24 01:16:48;;;;;;;8.10;5.60;;;2.80;99.90;;;;;;5087318;28;20099;-88
2021/01/24 01:19:27;;;;;;;8.82;6.07;;;2.80;99.90;;;;;;5106806;28;20118;-88
2021/01/24 01:22:21;;;;;;;9.35;6.12;;;2.80;99.90;;;;;;5079068;28;20531;-88
2021/01/24 01:25:00;;;;;;;9.30;6.07;;;2.80;99.90;;;;;;5103325;28;20207;-88
2021/01/24 01:27:52;;;;;;;8.13;5.75;;;2.80;99.90;;;;;;5071671;28;20132;-88
2021/01/24 01:30:31;;;;;;;7.72;5.87;;;2.80;99.90;;;;;;5110418;28;20107;-88
2021/01/24 01:33:23;;;;;;;7.78;5.72;;;2.80;99.90;;;;;;5085867;28;20084;-88
2021/01/24 01:36:02;;;;;;;13.30;7.05;;;2.90;99.90;;;;;;5059816;28;20140;-88
2021/01/24 01:38:57;;;;;;;15.77;10.43;;;2.90;99.90;;;;;;5066792;28;20092;-88
2021/01/24 01:41:36;;;;;;;12.70;8.73;;;2.80;99.90;;;;;;5107799;27;20114;-88
2021/01/24 01:44:30;;;;;;;15.30;10.50;;;2.90;99.90;;;;;;5109197;28;20103;-85
2021/01/24 01:47:16;;;;;;;12.80;7.85;;;2.80;99.90;;;;;;5097602;28;20144;-85
2021/01/24 01:50:11;;;;;;;16.65;6.78;;;2.80;99.90;;;;;;5112706;28;20111;-84
2021/01/24 01:52:50;;;;;;;9.75;6.30;;;2.90;99.90;;;;;;5132039;28;20083;-85
2021/01/24 01:55:42;;;;;;;10.63;6.50;;;2.80;99.90;;;;;;5087326;28;20118;-85
2021/01/24 01:58:25;;;;;;;9.88;7.03;;;2.90;99.90;;;;;;5088206;28;20058;-85
2021/01/24 02:01:47;;;;;;;11.20;7.12;;;2.90;99.90;;;;;;5078534;28;20103;-85
2021/01/24 02:05:14;;;;;;;14.90;10.38;;;2.90;99.90;;;;;;5089202;28;20157;-85
2021/01/24 02:08:11;;;;;;;22.23;12.43;;;2.80;99.90;;;;;;5077094;28;20115;-85
2021/01/24 02:11:20;;;;;;;22.30;11.57;;;2.80;99.90;;;;;;5141576;27;20086;-85
2021/01/24 02:14:34;;;;;;;15.55;9.63;;;2.80;99.90;;;;;;5066158;28;20088;-85
2021/01/24 02:17:18;;;;;;;13.25;8.43;;;2.80;99.90;;;;;;5117407;27;20151;-84
2021/01/24 02:20:24;;;;;;;19.23;11.02;;;2.80;99.90;;;;;;5100526;28;20117;-84
2021/01/24 02:23:03;;;;;;;16.27;9.45;;;2.80;99.90;;;;;;5143974;27;20201;-85
2021/01/24 02:26:13;;;;;;;23.55;12.00;;;2.80;99.90;;;;;;5072152;28;20091;-85
2021/01/24 02:29:11;;;;;;;25.50;13.60;;;2.80;99.90;;;;;;5121173;28;20506;-85
2021/01/24 02:32:03;;;;;;;37.00;17.30;;;2.80;99.90;;;;;;5085108;28;20504;-85
2021/01/24 02:34:42;;;;;;;29.37;15.48;;;2.80;99.90;;;;;;5079012;28;20166;-86
2021/01/24 02:37:36;;;;;;;40.58;20.08;;;2.80;99.90;;;;;;5053384;28;20102;-86
2021/01/24 02:40:15;;;;;;;24.95;12.52;;;2.80;99.90;;;;;;5152231;27;20193;-86
2021/01/24 02:43:09;;;;;;;20.05;11.95;;;2.80;99.90;;;;;;5113741;27;20106;-87
2021/01/24 02:45:49;;;;;;;14.07;9.68;;;2.80;99.90;;;;;;5089503;28;20106;-87
2021/01/24 02:48:47;;;;;;;17.80;10.60;;;2.80;99.90;;;;;;5143584;27;20102;-87
2021/01/24 02:51:27;;;;;;;12.65;9.02;;;2.70;99.90;;;;;;5131298;27;20090;-86
2021/01/24 02:54:20;;;;;;;13.50;9.57;;;2.70;99.90;;;;;;5039605;28;20127;-86
2021/01/24 02:57:01;;;;;;;12.35;7.93;;;2.70;99.90;;;;;;5066286;28;20123;-86
2021/01/24 02:59:56;;;;;;;15.80;9.85;;;2.70;99.90;;;;;;5109534;28;20095;-87
2021/01/24 03:02:36;;;;;;;15.93;10.25;;;2.60;99.90;;;;;;5138469;27;20091;-86
2021/01/24 03:05:29;;;;;;;10.95;8.07;;;2.60;99.90;;;;;;5072074;28;20569;-86
2021/01/24 03:08:08;;;;;;;14.18;8.98;;;2.60;99.90;;;;;;5132468;28;20095;-85
2021/01/24 03:11:03;;;;;;;15.95;9.45;;;2.60;99.90;;;;;;5063430;28;20504;-85
2021/01/24 03:13:55;;;;;;;14.90;9.77;;;2.50;99.90;;;;;;5110559;28;20095;-86
2021/01/24 03:16:49;;;;;;;9.85;6.80;;;2.50;99.90;;;;;;5123289;28;20370;-86
2021/01/24 03:19:29;;;;;;;12.30;8.15;;;2.50;99.90;;;;;;5088797;28;20087;-87
2021/01/24 03:22:22;;;;;;;11.88;8.25;;;2.50;99.90;;;;;;5101600;28;20169;-86
2021/01/24 03:25:04;;;;;;;16.58;11.48;;;2.50;99.90;;;;;;5071924;28;20530;-87
2021/01/24 03:27:58;;;;;;;14.77;9.60;;;2.50;99.90;;;;;;5105262;28;20091;-87
2021/01/24 03:30:37;;;;;;;17.48;11.55;;;2.40;99.90;;;;;;5065836;28;20114;-88
2021/01/24 03:33:34;;;;;;;19.02;12.63;;;2.40;99.90;;;;;;5068013;28;20092;-87
2021/01/24 03:36:13;;;;;;;16.98;10.98;;;2.40;99.90;;;;;;5140886;27;20110;-87
2021/01/24 03:39:05;;;;;;;18.50;11.65;;;2.40;99.90;;;;;;5111223;28;20102;-88
2021/01/24 03:41:44;;;;;;;16.50;11.68;;;2.40;99.90;;;;;;5088239;28;20092;-88
2021/01/24 03:44:36;;;;;;;19.02;11.65;;;2.30;99.90;;;;;;5116858;28;20088;-87
2021/01/24 03:47:15;;;;;;;16.27;9.88;;;2.30;99.90;;;;;;5124602;27;20087;-86
2021/01/24 03:50:08;;;;;;;21.87;12.40;;;2.30;99.90;;;;;;5113341;27;20098;-86
2021/01/24 03:52:48;;;;;;;18.17;11.88;;;2.30;99.90;;;;;;5099190;28;20088;-87
2021/01/24 03:55:45;;;;;;;16.55;11.63;;;2.30;99.90;;;;;;5100239;28;20111;-86
2021/01/24 03:58:24;;;;;;;21.25;13.48;;;2.30;99.90;;;;;;5116159;28;20091;-87
2021/01/24 04:01:19;;;;;;;24.55;14.87;;;2.30;99.90;;;;;;5124366;28;20103;-87
2021/01/24 04:04:14;;;;;;;22.55;15.63;;;2.30;99.90;;;;;;5131730;27;20095;-86
2021/01/24 04:06:53;;;;;;;18.85;12.52;;;2.20;99.90;;;;;;5100020;28;20103;-85
2021/01/24 04:09:46;;;;;;;19.42;13.30;;;2.20;99.90;;;;;;5083253;28;20083;-85
2021/01/24 04:12:27;;;;;;;21.42;13.25;;;2.20;99.90;;;;;;5101947;28;20105;-85
2021/01/24 04:15:18;;;;;;;17.62;11.82;;;2.20;99.90;;;;;;5155809;27;20449;-88
2021/01/24 04:18:11;;;;;;;13.73;8.98;;;2.20;99.90;;;;;;5068469;28;20092;-88
2021/01/24 04:21:06;;;;;;;16.05;9.82;;;2.20;99.90;;;;;;5047217;28;20091;-85
2021/01/24 04:23:45;;;;;;;12.45;8.90;;;2.20;99.90;;;;;;5142100;27;20103;-86
2021/01/24 04:26:37;;;;;;;19.05;12.05;;;2.20;99.90;;;;;;5123414;27;20110;-85
2021/01/24 04:29:28;;;;;;;23.20;13.77;;;2.30;99.90;;;;;;5084570;28;20095;-85
2021/01/24 04:32:20;;;;;;;21.85;13.55;;;2.30;99.90;;;;;;5122516;28;20107;-86
2021/01/24 04:34:59;;;;;;;35.72;20.10;;;2.30;99.90;;;;;;5118674;28;20092;-86
2021/01/24 04:37:51;;;;;;;31.15;19.62;;;2.20;99.90;;;;;;5081031;28;20087;-85
2021/01/24 04:40:30;;;;;;;30.58;19.05;;;2.30;99.90;;;;;;4823232;27;20408;-85
2021/01/24 04:43:22;;;;;;;25.25;16.15;;;2.30;99.90;;;;;;5138922;27;20091;-85
2021/01/24 04:46:01;;;;;;;30.15;18.48;;;2.30;99.90;;;;;;5109879;27;20086;-84
2021/01/24 04:49:01;;;;;;;42.85;24.02;;;2.30;99.90;;;;;;5113101;27;20110;-85
2021/01/24 04:51:40;;;;;;;21.15;13.98;;;2.30;99.90;;;;;;5133717;28;20170;-85
2021/01/24 04:54:31;;;;;;;19.25;12.98;;;2.30;99.90;;;;;;5091050;28;20119;-85
2021/01/24 04:57:10;;;;;;;23.12;13.90;;;2.30;99.90;;;;;;5121143;28;20099;-85
2021/01/24 05:00:05;;;;;;;19.27;12.05;;;2.30;99.90;;;;;;5080095;28;20496;-85
2021/01/24 05:02:56;;;;;;;16.33;10.93;;;2.30;99.90;;;;;;5103747;28;20400;-85
2021/01/24 05:05:50;;;;;;;22.67;13.40;;;2.30;99.90;;;;;;5123609;28;20404;-85
2021/01/24 05:08:31;;;;;;;26.87;14.23;;;2.30;99.90;;;;;;5086868;28;20140;-85
2021/01/24 05:11:24;;;;;;;22.20;13.90;;;2.30;99.90;;;;;;5080963;28;20123;-85
2021/01/24 05:14:15;;;;;;;25.10;14.98;;;2.20;99.90;;;;;;5084711;28;20108;-85
2021/01/24 05:17:08;;;;;;;27.70;15.15;;;2.30;99.90;;;;;;5106084;28;20087;-85
2021/01/24 05:19:48;;;;;;;20.83;12.63;;;2.20;99.90;;;;;;5139096;27;20488;-85
2021/01/24 05:22:42;;;;;;;20.60;12.02;;;2.30;99.90;;;;;;5083615;28;20088;-85
2021/01/24 05:25:27;;;;;;;34.53;17.05;;;2.30;99.90;;;;;;5106468;28;20557;-85
2021/01/24 05:28:30;;;;;;;28.08;16.08;;;2.30;99.90;;;;;;5083005;28;20091;-85
2021/01/24 05:31:09;;;;;;;24.85;14.15;;;2.30;99.90;;;;;;5145653;28;20491;-84
2021/01/24 05:34:01;;;;;;;34.97;18.37;;;2.30;99.90;;;;;;5047313;28;20084;-87
2021/01/24 05:36:46;;;;;;;43.40;23.90;;;2.30;99.90;;;;;;5119958;28;20098;-87
2021/01/24 05:39:38;;;;;;;28.12;15.63;;;2.30;99.90;;;;;;5159753;27;20533;-86
2021/01/24 05:42:17;;;;;;;41.13;22.27;;;2.30;99.90;;;;;;5085954;28;20087;-86
2021/01/24 05:45:16;;;;;;;55.25;30.35;;;2.30;99.90;;;;;;5122021;28;20102;-86
2021/01/24 05:47:58;;;;;;;39.53;22.52;;;2.30;99.90;;;;;;5095265;28;20107;-86
2021/01/24 05:50:52;;;;;;;32.70;19.62;;;2.30;99.90;;;;;;5083513;28;20088;-87
2021/01/24 05:53:43;;;;;;;24.70;15.23;;;2.30;99.90;;;;;;5125148;27;20167;-88
2021/01/24 05:56:35;;;;;;;24.55;16.17;;;2.20;99.90;;;;;;5067013;28;20084;-88
2021/01/24 05:59:14;;;;;;;26.00;16.83;;;2.20;99.90;;;;;;5085544;28;20548;-87
2021/01/24 06:02:06;;;;;;;26.02;15.95;;;2.20;99.90;;;;;;5091085;28;20084;-84
2021/01/24 06:04:57;;;;;;;24.58;15.40;;;2.20;99.90;;;;;;5117201;28;20083;-84
2021/01/24 06:07:36;;;;;;;25.25;16.58;;;2.10;99.90;;;;;;5117333;28;20091;-84
2021/01/24 06:10:28;;;;;;;25.25;15.30;;;2.10;99.90;;;;;;5117514;28;20123;-85
2021/01/24 06:13:14;;;;;;;22.33;14.43;;;2.10;99.90;;;;;;5099218;28;20110;-88
2021/01/24 06:16:08;;;;;;;22.95;14.48;;;2.10;99.90;;;;;;5092041;28;20110;-88
2021/01/24 06:18:55;;;;;;;27.17;15.65;;;2.10;99.90;;;;;;5127729;27;20091;-87
2021/01/24 06:21:49;;;;;;;21.17;14.45;;;2.10;99.90;;;;;;5112030;27;20384;-88
2021/01/24 06:24:29;;;;;;;24.25;14.15;;;2.10;99.90;;;;;;5087091;28;20096;-88
2021/01/24 06:27:24;;;;;;;21.42;14.73;;;2.10;99.90;;;;;;5102787;28;20114;-88
2021/01/24 06:30:07;;;;;;;26.48;15.48;;;2.10;99.90;;;;;;5086317;28;20132;-88
2021/01/24 06:33:18;;;;;;;25.23;14.82;;;2.10;99.90;;;;;;5112911;27;20107;-88
2021/01/24 06:36:01;;;;;;;23.67;16.05;;;2.10;99.90;;;;;;5083975;28;20092;-88
2021/01/24 06:38:53;;;;;;;22.70;15.20;;;2.10;99.90;;;;;;5118890;28;20134;-88
2021/01/24 06:41:46;;;;;;;27.70;16.52;;;2.10;99.90;;;;;;5114701;28;20087;-88
2021/01/24 06:44:41;;;;;;;25.20;15.52;;;2.10;99.90;;;;;;5109792;28;20102;-88
2021/01/24 06:47:38;;;;;;;28.35;18.15;;;2.10;99.90;;;;;;5144860;27;20147;-88
2021/01/24 06:50:41;;;;;;;30.30;19.33;;;2.10;99.90;;;;;;5053993;28;20087;-88
2021/01/24 06:53:22;;;;;;;27.87;18.87;;;2.00;99.90;;;;;;5113952;28;20144;-88
2021/01/24 06:56:16;;;;;;;34.60;19.35;;;2.00;99.90;;;;;;5093502;28;20373;-88
2021/01/24 06:58:55;;;;;;;31.98;20.62;;;2.00;99.90;;;;;;5121109;28;20131;-88
2021/01/24 07:01:47;;;;;;;34.45;21.67;;;2.00;99.90;;;;;;5120471;28;20121;-88
2021/01/24 07:04:29;;;;;;;29.25;19.40;;;2.00;99.90;;;;;;5086154;28;20100;-88
2021/01/24 07:07:24;;;;;;;35.30;21.12;;;2.00;99.90;;;;;;5161664;27;20107;-86
2021/01/24 07:10:05;;;;;;;30.50;19.05;;;2.00;99.90;;;;;;5178497;27;20158;-88
2021/01/24 07:12:56;;;;;;;27.83;18.67;;;2.00;99.90;;;;;;5145519;27;20155;-88
2021/01/24 07:15:35;;;;;;;31.83;21.00;;;2.00;99.90;;;;;;5089641;28;20365;-89
2021/01/24 07:18:41;;;;;;;24.75;15.93;;;2.00;99.90;;;;;;5104509;28;20087;-88
2021/01/24 07:21:20;;;;;;;35.17;21.20;;;2.00;99.90;;;;;;5073057;28;20165;-85
2021/01/24 07:24:12;;;;;;;49.50;25.73;;;2.00;99.90;;;;;;5072210;28;20102;-87
2021/01/24 07:26:54;;;;;;;49.28;25.05;;;2.00;99.90;;;;;;5098029;28;20142;-86
2021/01/24 07:29:46;;;;;;;64.93;31.65;;;2.00;99.90;;;;;;5075787;28;20358;-85
2021/01/24 07:32:26;;;;;;;48.22;24.87;;;1.90;99.90;;;;;;5112085;28;20147;-86
2021/01/24 07:35:17;;;;;;;34.45;21.12;;;1.90;99.90;;;;;;5075370;28;20420;-85
2021/01/24 07:38:07;;;;;;;28.00;16.20;;;1.90;99.90;;;;;;5085285;28;20104;-86
2021/01/24 07:41:00;;;;;;;22.23;14.32;;;1.90;99.90;;;;;;5099599;28;20115;-85
2021/01/24 07:43:39;;;;;;;32.42;20.02;;;1.90;99.90;;;;;;5114613;27;20086;-85
2021/01/24 07:46:30;;;;;;;33.53;19.37;;;2.00;99.90;;;;;;5108315;28;20103;-85
2021/01/24 07:52:51;;;;;;;32.65;20.10;;;1.90;99.90;;;;;;5141718;28;20094;-86
2021/01/24 07:55:44;;;;;;;35.00;22.42;;;1.90;99.90;;;;;;5101088;28;20092;-86
2021/01/24 07:58:23;;;;;;;39.13;22.48;;;1.90;99.90;;;;;;5090654;28;20491;-88
2021/01/24 08:01:19;;;;;;;58.70;24.23;;;1.90;99.90;;;;;;5041322;28;20088;-88
2021/01/24 08:04:12;;;;;;;57.05;26.40;;;1.90;99.90;;;;;;5078730;28;20147;-86
2021/01/24 08:06:55;;;;;;;59.13;25.62;;;1.90;99.90;;;;;;5110629;28;20098;-88
2021/01/24 08:09:49;;;;;;;56.58;25.35;;;1.90;99.90;;;;;;5052387;28;20092;-88
2021/01/24 08:12:28;;;;;;;61.17;29.67;;;1.90;99.90;;;;;;5090621;28;20139;-87
2021/01/24 08:15:23;;;;;;;57.53;28.08;;;1.90;99.90;;;;;;5129794;27;20372;-86
2021/01/24 08:18:24;;;;;;;65.47;28.55;;;1.90;99.90;;;;;;5108846;28;20186;-86
2021/01/24 08:21:15;;;;;;;45.58;26.12;;;1.90;99.90;;;;;;5064634;28;20088;-87
2021/01/24 08:24:02;;;;;;;52.72;24.20;;;1.90;99.90;;;;;;5104498;28;20106;-87
2021/01/24 08:27:06;;;;;;;43.20;21.77;;;1.90;99.90;;;;;;5095432;28;20107;-90
2021/01/24 08:30:03;;;;;;;37.10;21.52;;;1.80;99.90;;;;;;5068468;28;20169;-89
2021/01/24 08:32:59;;;;;;;38.72;22.13;;;1.90;99.90;;;;;;5123837;28;20139;-89
2021/01/24 08:35:50;;;;;;;42.22;22.62;;;1.90;99.90;;;;;;5100032;28;20115;-86
2021/01/24 08:38:32;;;;;;;42.80;23.23;;;1.90;99.90;;;;;;5143271;27;20143;-88
2021/01/24 08:41:33;;;;;;;40.38;23.85;;;1.90;99.90;;;;;;5120118;28;20163;-87
2021/01/24 08:44:15;;;;;;;39.85;20.90;;;1.90;99.90;;;;;;5158448;27;20188;-87
2021/01/24 08:47:06;;;;;;;42.42;23.12;;;1.90;99.90;;;;;;5079698;28;20087;-90
2021/01/24 08:49:45;;;;;;;40.67;23.27;;;2.00;99.90;;;;;;5121299;28;20411;-90
2021/01/24 08:52:37;;;;;;;45.05;26.75;;;2.00;99.90;;;;;;5098218;28;20100;-90
2021/01/24 08:55:16;;;;;;;45.83;25.95;;;2.00;99.90;;;;;;5079412;28;20533;-89
2021/01/24 08:58:23;;;;;;;40.67;23.65;;;2.00;99.90;;;;;;5136080;28;20087;-87
2021/01/24 09:01:14;;;;;;;37.30;22.13;;;2.10;99.90;;;;;;5121567;28;20591;-88
2021/01/24 09:04:55;;;;;;;33.60;20.83;;;2.20;99.90;;;;;;5158290;27;20131;-88
2021/01/24 09:07:51;;;;;;;35.45;19.30;;;2.20;99.90;;;;;;5140066;27;20106;-90
2021/01/24 09:10:46;;;;;;;34.60;21.67;;;2.40;99.90;;;;;;5130740;27;20123;-89
2021/01/24 09:17:34;;;;;;;39.85;17.65;;;2.40;99.90;;;;;;5034319;28;20206;-92
2021/01/24 09:21:06;;;;;;;37.92;20.83;;;2.60;99.90;;;;;;5007266;28;20148;-90
2021/01/24 09:25:10;;;;;;;35.50;22.13;;;3.40;99.90;;;;;;4956460;28;20098;-90
2021/01/24 09:29:10;;;;;;;32.75;18.60;;;3.40;99.90;;;;;;5067968;28;20468;-90
2021/01/24 09:32:36;;;;;;;38.88;21.17;;;3.50;99.90;;;;;;5047292;28;20155;-88
2021/01/24 09:35:38;;;;;;;30.80;17.58;;;3.40;99.90;;;;;;4648792;28;20092;-88
2021/01/24 09:38:34;;;;;;;27.95;16.60;;;3.20;99.90;;;;;;5064413;28;20095;-87
2021/01/24 09:41:16;;;;;;;34.10;21.20;;;3.20;99.90;;;;;;5045731;28;20104;-87
2021/01/24 09:44:08;;;;;;;33.80;20.52;;;3.10;99.90;;;;;;5049133;28;20088;-87
2021/01/24 09:47:01;;;;;;;38.53;21.73;;;3.00;99.90;;;;;;5043996;28;20207;-87
2021/01/24 09:49:56;;;;;;;40.22;22.92;;;3.00;99.90;;;;;;5052547;28;20102;-87
2021/01/24 09:52:48;;;;;;;41.33;23.05;;;3.00;99.90;;;;;;5050934;28;20092;-87
2021/01/24 09:55:40;;;;;;;40.08;23.65;;;2.90;99.90;;;;;;5064035;28;20092;-87
2021/01/24 09:58:22;;;;;;;41.72;24.35;;;2.90;99.90;;;;;;5080785;28;20096;-87
2021/01/24 10:01:14;;;;;;;34.33;21.65;;;2.90;99.90;;;;;;5049819;28;20110;-87
2021/01/24 10:04:06;;;;;;;33.92;20.75;;;2.90;99.90;;;;;;5106213;28;20080;-87
2021/01/24 10:06:45;;;;;;;36.28;21.17;;;3.00;99.90;;;;;;5126432;27;20356;-87
2021/01/24 10:09:40;;;;;;;26.30;16.02;;;3.00;99.90;;;;;;5075529;28;20087;-87
2021/01/24 10:12:19;;;;;;;31.25;19.02;;;3.00;99.90;;;;;;5135974;28;20397;-87
2021/01/24 10:15:14;;;;;;;32.58;18.90;;;3.10;99.90;;;;;;5109140;28;20135;-87
2021/01/24 10:21:33;;;;;;;31.83;19.33;;;3.20;99.90;;;;;;5100389;28;20500;-87
2021/01/24 10:24:27;;;;;;;32.53;19.42;;;3.30;99.90;;;;;;5088139;28;20150;-87
2021/01/24 10:27:06;;;;;;;31.20;20.23;;;3.40;99.90;;;;;;5077873;28;20093;-87
2021/01/24 10:29:58;;;;;;;31.40;19.52;;;3.40;99.90;;;;;;5098248;28;20087;-87
2021/01/24 10:32:43;;;;;;;26.67;17.58;;;3.40;99.90;;;;;;5065943;28;20140;-87
2021/01/24 10:35:42;;;;;;;32.88;19.85;;;3.40;99.90;;;;;;5146781;27;20143;-87
2021/01/24 10:38:34;;;;;;;34.70;22.02;;;3.50;99.90;;;;;;5088320;28;20127;-87
2021/01/24 10:41:13;;;;;;;34.33;21.52;;;3.50;99.90;;;;;;5133368;27;20421;-86
2021/01/24 10:44:05;;;;;;;29.95;17.87;;;3.50;99.90;;;;;;5064648;28;20104;-89
2021/01/24 10:46:44;;;;;;;28.98;19.27;;;3.50;99.90;;;;;;5102107;28;20085;-88
2021/01/24 10:49:36;;;;;;;34.35;20.25;;;3.60;99.90;;;;;;5115089;28;20472;-87
2021/01/24 10:52:16;;;;;;;35.70;20.88;;;3.60;99.90;;;;;;5092036;28;20172;-88
2021/01/24 10:55:07;;;;;;;35.85;21.10;;;3.60;99.90;;;;;;5126607;28;20087;-89
2021/01/24 10:57:47;;;;;;;26.08;16.98;;;3.60;99.90;;;;;;5106518;28;20180;-87
2021/01/24 11:00:39;;;;;;;21.77;14.93;;;3.60;99.90;;;;;;5118796;27;20087;-87
2021/01/24 11:03:19;;;;;;;18.08;11.82;;;3.60;99.90;;;;;;5104128;28;20100;-88
2021/01/24 11:06:10;;;;;;;18.45;13.05;;;3.60;99.90;;;;;;5099345;28;20094;-88
2021/01/24 11:08:52;;;;;;;16.48;11.35;;;3.60;99.90;;;;;;5111613;28;20083;-88
2021/01/24 11:11:44;;;;;;;17.77;11.85;;;3.70;99.90;;;;;;5136968;27;20087;-88
2021/01/24 11:14:23;;;;;;;19.40;12.82;;;3.80;99.90;;;;;;5053679;28;20130;-87
2021/01/24 11:17:15;;;;;;;15.07;10.52;;;3.80;99.90;;;;;;5045034;28;20103;-87
2021/01/24 11:19:54;;;;;;;17.33;10.65;;;3.80;99.90;;;;;;5083580;28;20103;-87
2021/01/24 11:22:46;;;;;;;17.10;12.15;;;3.80;99.90;;;;;;5088401;28;20159;-87
2021/01/24 11:25:27;;;;;;;20.77;12.00;;;3.80;99.90;;;;;;5045735;28;20115;-87
2021/01/24 11:32:02;;;;;;;19.05;11.82;;;3.90;99.90;;;;;;5076686;28;20137;-87
2021/01/24 11:34:57;;;;;;;17.95;11.80;;;4.00;99.90;;;;;;5037574;28;20111;-87
2021/01/24 11:37:39;;;;;;;16.37;11.48;;;4.00;99.90;;;;;;5116178;28;20138;-87
2021/01/24 11:40:36;;;;;;;17.25;12.05;;;4.10;99.90;;;;;;5085909;28;20110;-87
2021/01/24 11:43:16;;;;;;;16.95;11.63;;;4.20;99.90;;;;;;5116689;28;20159;-87
2021/01/24 11:46:07;;;;;;;20.35;11.85;;;4.10;99.90;;;;;;5113411;28;20389;-86
2021/01/24 11:48:49;;;;;;;21.40;13.45;;;4.10;99.90;;;;;;5160548;27;20094;-87
2021/01/24 11:51:43;;;;;;;17.48;12.18;;;4.10;99.90;;;;;;5083275;28;20394;-86
2021/01/24 11:54:22;;;;;;;16.77;11.90;;;4.00;99.90;;;;;;5084282;28;20088;-87
2021/01/24 11:57:14;;;;;;;18.23;11.10;;;4.00;99.90;;;;;;5136987;28;20102;-87
2021/01/24 11:59:54;;;;;;;16.40;11.60;;;4.00;99.90;;;;;;5086124;28;20092;-87
2021/01/24 12:02:32;;;;;;;18.65;13.07;;;4.00;99.90;;;;;;5102860;28;20087;-88
2021/01/24 12:05:23;;;;;;;16.83;12.13;;;4.00;99.90;;;;;;5139320;27;20098;-88
2021/01/24 12:08:03;;;;;;;21.12;13.52;;;4.10;99.90;;;;;;5089480;28;20092;-88
2021/01/24 12:10:55;;;;;;;22.15;14.55;;;4.00;99.90;;;;;;5087899;28;20161;-88
2021/01/24 12:13:37;;;;;;;20.25;13.07;;;4.00;99.90;;;;;;5171776;27;20110;-88
2021/01/24 12:16:32;;;;;;;21.95;14.35;;;4.00;99.90;;;;;;5085159;28;20091;-87
2021/01/24 12:19:11;;;;;;;26.80;15.85;;;3.90;99.90;;;;;;5083055;28;20088;-89
2021/01/24 12:22:02;;;;;;;26.90;15.93;;;4.00;99.90;;;;;;5107071;28;20131;-89
2021/01/24 12:24:41;;;;;;;26.00;15.63;;;4.00;99.90;;;;;;5115285;27;20487;-89
2021/01/24 12:27:33;;;;;;;26.10;16.48;;;4.00;99.90;;;;;;5090649;28;20110;-87
2021/01/24 12:30:28;;;;;;;26.87;15.20;;;3.90;99.90;;;;;;5109694;28;20160;-87
2021/01/24 12:33:25;;;;;;;24.45;15.93;;;3.90;99.90;;;;;;5094770;28;20100;-88
2021/01/24 12:36:19;;;;;;;24.92;15.15;;;3.90;99.90;;;;;;5067748;28;20100;-87
2021/01/24 12:39:10;;;;;;;45.17;22.08;;;3.90;99.90;;;;;;5090494;28;20165;-89
2021/01/24 12:41:52;;;;;;;37.45;19.55;;;3.90;99.90;;;;;;5092635;28;20420;-90
2021/01/24 12:44:45;;;;;;;28.40;16.50;;;4.00;99.90;;;;;;5106461;28;20128;-89
2021/01/24 12:47:24;;;;;;;23.92;14.32;;;4.00;99.90;;;;;;5140068;28;20087;-88
2021/01/24 12:50:16;;;;;;;24.90;16.12;;;4.10;99.90;;;;;;5081181;28;20095;-89
2021/01/24 12:52:55;;;;;;;29.00;17.73;;;4.10;99.90;;;;;;5126075;28;20091;-89
2021/01/24 12:55:47;;;;;;;24.83;15.48;;;4.10;99.90;;;;;;5091593;28;20095;-89
2021/01/24 12:58:39;;;;;;;25.40;16.02;;;4.10;99.90;;;;;;5093500;28;20103;-89
2021/01/24 13:01:31;;;;;;;27.45;16.83;;;4.00;99.90;;;;;;5064106;28;20199;-89
2021/01/24 13:04:13;;;;;;;30.70;18.87;;;4.00;99.90;;;;;;5111414;28;20135;-90
2021/01/24 13:07:07;;;;;;;29.48;18.40;;;4.00;99.90;;;;;;5118842;28;20152;-89
2021/01/24 13:09:47;;;;;;;32.58;18.77;;;3.90;99.90;;;;;;5103580;28;20127;-89
2021/01/24 13:12:41;;;;;;;36.33;21.25;;;3.90;99.90;;;;;;5102467;28;20095;-89
2021/01/24 13:15:20;;;;;;;36.17;20.42;;;3.90;99.90;;;;;;5084495;28;20084;-89
2021/01/24 13:18:12;;;;;;;36.25;21.20;;;3.80;99.90;;;;;;5086525;28;20169;-89
2021/01/24 13:20:51;;;;;;;35.90;19.87;;;3.80;99.90;;;;;;5128359;27;20168;-90
2021/01/24 13:23:45;;;;;;;37.35;20.80;;;3.80;99.90;;;;;;5081736;28;20148;-87
2021/01/24 13:26:24;;;;;;;34.17;20.15;;;3.70;99.90;;;;;;5108264;28;20493;-87
2021/01/24 13:29:15;;;;;;;31.00;19.52;;;3.70;99.90;;;;;;5128129;27;20107;-87
2021/01/24 13:31:54;;;;;;;34.63;20.08;;;3.60;99.90;;;;;;5128999;28;20149;-88
2021/01/24 13:34:48;;;;;;;33.85;20.05;;;3.70;99.90;;;;;;5129020;28;20127;-89
2021/01/24 13:37:27;;;;;;;38.65;21.00;;;3.60;99.90;;;;;;5124563;28;20102;-87
2021/01/24 13:40:19;;;;;;;32.70;20.83;;;3.70;99.90;;;;;;5077268;28;20373;-87
2021/01/24 13:42:58;;;;;;;25.65;18.00;;;3.70;99.90;;;;;;5123238;28;20087;-87
2021/01/24 13:45:50;;;;;;;31.87;18.50;;;3.70;99.90;;;;;;5108589;28;20091;-87
2021/01/24 13:48:29;;;;;;;30.23;17.85;;;3.70;99.90;;;;;;5104194;28;20111;-86
2021/01/24 13:51:21;;;;;;;28.87;18.12;;;3.70;99.90;;;;;;5105916;28;20161;-87
2021/01/24 13:54:00;;;;;;;29.87;17.48;;;3.70;99.90;;;;;;5077786;28;20609;-87
2021/01/24 13:56:52;;;;;;;28.80;17.80;;;3.70;99.90;;;;;;5066232;28;20122;-87
2021/01/24 13:59:31;;;;;;;37.83;20.70;;;3.70;99.90;;;;;;5140182;28;20087;-88
2021/01/24 14:02:29;;;;;;;38.22;19.92;;;3.70;99.90;;;;;;5122267;28;20114;-88
2021/01/24 14:05:28;;;;;;;30.73;18.58;;;3.60;99.90;;;;;;5089391;28;20095;-88
2021/01/24 14:08:12;;;;;;;36.85;18.27;;;3.70;99.90;;;;;;5105398;28;20084;-88
2021/01/24 14:11:09;;;;;;;30.65;18.33;;;3.60;99.90;;;;;;5079507;28;20092;-87
2021/01/24 14:13:48;;;;;;;29.98;19.30;;;3.50;99.90;;;;;;5139909;28;20156;-87
2021/01/24 14:16:45;;;;;;;40.65;21.37;;;3.50;99.90;;;;;;4816777;27;20398;-88
2021/01/24 14:19:24;;;;;;;33.72;19.67;;;3.50;99.90;;;;;;5137176;27;20087;-88
2021/01/24 14:22:19;;;;;;;30.67;17.20;;;3.40;99.90;;;;;;5145334;28;20095;-88
2021/01/24 14:25:16;;;;;;;101.78;40.42;;;3.40;99.90;;;;;;5112272;28;20095;-88
2021/01/24 14:28:14;;;;;;;65.20;28.77;;;3.40;99.90;;;;;;5124350;28;20096;-88
2021/01/24 14:30:56;;;;;;;160.05;49.97;;;3.30;99.90;;;;;;5125327;28;20099;-88
2021/01/24 14:33:54;;;;;;;83.75;28.77;;;3.30;99.90;;;;;;5121248;27;20095;-87
2021/01/24 14:36:33;;;;;;;32.42;18.25;;;3.20;99.90;;;;;;5083537;28;20092;-87
2021/01/24 14:39:28;;;;;;;28.83;16.77;;;3.20;99.90;;;;;;5081529;28;20147;-87
2021/01/24 14:42:08;;;;;;;38.58;21.20;;;3.20;99.90;;;;;;5103614;28;20106;-87
2021/01/24 14:45:03;;;;;;;111.28;48.40;;;3.10;99.90;;;;;;5089333;28;20091;-87
2021/01/24 14:47:42;;;;;;;101.00;43.15;;;3.10;99.90;;;;;;5093474;28;20126;-87